Time;durP1;ratioP1;P1;durP2;ratioP2;P2;SDS_P1;SDS_P2;PMS_P1;PMS_P2;Temp;Humidity;BMP_temperature;BMP_pressure;BME280_temperature;BME280_humidity;BME280_pressure;Samples;Min_cycle;Max_cycle;Signal;HPM_P1;HPM_P2
2022/01/15 00:01:25;;;;;;;;;;;3.80;99.90;;;;;;5041430;28;19917;-74
2022/01/15 00:03:51;;;;;;;;;;;3.80;99.90;;;;;;5041410;28;19957;-81
2022/01/15 00:06:19;;;;;;;;;;;3.80;99.90;;;;;;5041662;28;19924;-75
2022/01/15 00:11:18;;;;;;;;;;;3.80;99.90;;;;;;5038909;28;19933;-67
2022/01/15 00:13:53;;;;;;;;;;;3.80;99.90;;;;;;5041509;28;19914;-68
2022/01/15 00:16:30;;;;;;;;;;;3.80;99.90;;;;;;5041362;28;19909;-74
2022/01/15 00:19:05;;;;;;;;;;;3.80;99.90;;;;;;5026692;28;19909;-79
2022/01/15 00:21:33;;;;;;;;;;;3.80;99.90;;;;;;5018859;28;19925;-80
2022/01/15 00:24:00;;;;;;;;;;;3.80;99.90;;;;;;5021246;28;19909;-74
2022/01/15 00:26:26;;;;;;;;;;;3.60;99.90;;;;;;5021486;28;19933;-71
2022/01/15 00:28:53;;;;;;;;;;;3.80;99.90;;;;;;5021280;28;19937;-73
2022/01/15 00:31:20;;;;;;;;;;;3.80;99.90;;;;;;5036799;28;19936;-74
2022/01/15 00:33:49;;;;;;;;;;;3.80;99.90;;;;;;5040161;28;19953;-80
2022/01/15 00:36:17;;;;;;;;;;;3.70;99.90;;;;;;5038887;28;19952;-80
2022/01/15 00:38:45;;;;;;;;;;;3.70;99.90;;;;;;5036529;28;19929;-79
2022/01/15 00:41:13;;;;;;;;;;;3.70;99.90;;;;;;5022014;28;19969;-79
2022/01/15 00:43:40;;;;;;;;;;;3.70;99.90;;;;;;5037457;28;19956;-74
2022/01/15 00:46:07;;;;;;;;;;;3.70;99.90;;;;;;5040960;28;19909;-68
2022/01/15 00:48:34;;;;;;;;;;;3.70;99.90;;;;;;5040846;28;19941;-69
2022/01/15 00:51:00;;;;;;;;;;;3.70;99.90;;;;;;5040835;28;19948;-67
2022/01/15 00:53:27;;;;;;;;;;;3.70;99.90;;;;;;5040738;28;19910;-68
2022/01/15 00:55:55;;;;;;;;;;;3.70;99.90;;;;;;5040642;28;19940;-67
2022/01/15 00:58:22;;;;;;;;;;;3.70;99.90;;;;;;5038304;28;19952;-69
2022/01/15 01:00:49;;;;;;;;;;;3.70;99.90;;;;;;5020980;28;19917;-69
2022/01/15 01:03:18;;;;;;;;;;;3.70;99.90;;;;;;5020867;28;19917;-71
2022/01/15 01:05:45;;;;;;;;;;;3.70;99.90;;;;;;5020924;28;19933;-67
2022/01/15 01:08:12;;;;;;;;;;;3.70;99.90;;;;;;5271387;23;19971;-79
2022/01/15 01:10:52;;;;;;;;;;;3.70;99.90;;;;;;5069052;28;19921;-77
2022/01/15 01:20:00;;;;;;;;;;;3.70;99.90;;;;;;5077768;28;19909;-78
2022/01/15 01:24:40;;;;;;;;;;;3.70;99.90;;;;;;5059578;28;19916;-71
2022/01/15 01:27:12;;;;;;;;;;;3.70;99.90;;;;;;5060038;28;19909;-71
2022/01/15 01:29:51;;;;;;;;;;;3.60;99.90;;;;;;5059876;28;19909;-72
2022/01/15 01:32:36;;;;;;;;;;;3.60;99.90;;;;;;5078797;28;19919;-67
2022/01/15 01:35:09;;;;;;;;;;;3.60;99.90;;;;;;5073727;28;19909;-70
2022/01/15 01:37:40;;;;;;;;;;;3.60;99.90;;;;;;5059733;28;19909;-67
2022/01/15 01:40:17;;;;;;;;;;;3.60;99.90;;;;;;5059787;28;19915;-75
2022/01/15 01:42:54;;;;;;;;;;;3.60;99.90;;;;;;5059519;28;19948;-79
2022/01/15 01:45:22;;;;;;;;;;;3.60;99.90;;;;;;5059704;28;19932;-74
2022/01/15 01:47:48;;;;;;;;;;;3.50;99.90;;;;;;5059735;28;19909;-69
2022/01/15 01:50:16;;;;;;;;;;;3.40;99.90;;;;;;5059670;28;19936;-67
2022/01/15 01:52:44;;;;;;;;;;;3.50;99.90;;;;;;5070635;28;19940;-67
2022/01/15 01:55:11;;;;;;;;;;;3.40;99.90;;;;;;5064187;28;19940;-75
2022/01/15 01:57:38;;;;;;;;;;;3.40;99.90;;;;;;5059537;28;19909;-71
2022/01/15 02:00:06;;;;;;;;;;;3.40;99.90;;;;;;5059212;28;19936;-71
2022/01/15 02:02:35;;;;;;;;;;;3.40;99.90;;;;;;5068306;28;19933;-74
2022/01/15 02:05:02;;;;;;;;;;;3.40;99.90;;;;;;5079396;28;19920;-67
2022/01/15 02:07:29;;;;;;;;;;;3.40;99.90;;;;;;5070703;28;19925;-78
2022/01/15 02:09:57;;;;;;;;;;;3.50;99.90;;;;;;5058064;28;19925;-82
2022/01/15 02:12:24;;;;;;;;;;;3.50;99.90;;;;;;5055750;28;19910;-71
2022/01/15 02:14:51;;;;;;;;;;;3.50;99.90;;;;;;5052102;28;19933;-69
2022/01/15 02:17:19;;;;;;;;;;;3.50;99.90;;;;;;5059265;28;19932;-67
2022/01/15 02:20:08;;;;;;;;;;;3.40;99.90;;;;;;5059140;28;19919;-73
2022/01/15 02:25:18;;;;;;;;;;;3.30;99.90;;;;;;5039627;28;19936;-68
2022/01/15 02:27:45;;;;;;;;;;;3.40;99.90;;;;;;5039432;28;19910;-73
2022/01/15 02:30:12;;;;;;;;;;;3.40;99.90;;;;;;5050011;28;19977;-80
2022/01/15 02:32:39;;;;;;;;;;;3.30;99.90;;;;;;5047104;28;19937;-74
2022/01/15 02:35:08;;;;;;;;;;;3.40;99.90;;;;;;5060628;28;19940;-72
2022/01/15 02:37:34;;;;;;;;;;;3.40;99.90;;;;;;5063127;28;19916;-72
2022/01/15 02:40:01;;;;;;;;;;;3.40;99.90;;;;;;5063012;28;19916;-67
2022/01/15 02:42:30;;;;;;;;;;;3.30;99.90;;;;;;5062996;28;19936;-79
2022/01/15 02:45:01;;;;;;;;;;;3.30;99.90;;;;;;5059120;28;19909;-80
2022/01/15 02:52:49;;;;;;;;;;;3.20;99.90;;;;;;5379972;22;19909;-80
2022/01/15 02:55:16;;;;;;;;;;;3.20;99.90;;;;;;5055462;28;19932;-81
2022/01/15 02:57:43;;;;;;;;;;;3.20;99.90;;;;;;5047001;28;19916;-81
2022/01/15 03:00:10;;;;;;;;;;;3.20;99.90;;;;;;5050603;28;19927;-74
2022/01/15 03:02:37;;;;;;;;;;;3.20;99.90;;;;;;5062420;28;19952;-76
2022/01/15 03:05:04;;;;;;;;;;;3.10;99.90;;;;;;5062671;28;19916;-77
2022/01/15 03:07:31;;;;;;;;;;;3.00;99.90;;;;;;5062664;28;19909;-69
2022/01/15 03:09:59;;;;;;;;;;;3.10;99.90;;;;;;5062621;28;19909;-71
2022/01/15 03:12:26;;;;;;;;;;;3.10;99.90;;;;;;5062592;28;19909;-69
2022/01/15 03:14:55;;;;;;;;;;;3.20;99.90;;;;;;5062578;28;19916;-69
2022/01/15 03:17:22;;;;;;;;;;;3.20;99.90;;;;;;5062503;28;19931;-74
2022/01/15 03:19:49;;;;;;;;;;;3.20;99.90;;;;;;5057436;28;19969;-71
2022/01/15 03:22:15;;;;;;;;;;;3.20;99.90;;;;;;5062033;28;19965;-70
2022/01/15 03:24:42;;;;;;;;;;;3.20;99.90;;;;;;5062240;28;19937;-81
2022/01/15 03:27:10;;;;;;;;;;;3.10;99.90;;;;;;5062262;28;19937;-76
2022/01/15 03:29:37;;;;;;;;;;;3.10;99.90;;;;;;5062245;28;19910;-66
2022/01/15 03:32:04;;;;;;;;;;;3.10;99.90;;;;;;5062176;28;19909;-69
2022/01/15 03:34:30;;;;;;;;;;;3.10;99.90;;;;;;5062220;28;19933;-69
2022/01/15 03:36:59;;;;;;;;;;;3.10;99.90;;;;;;5061980;28;19947;-72
2022/01/15 03:39:25;;;;;;;;;;;3.00;99.90;;;;;;5054795;28;19937;-69
2022/01/15 03:41:52;;;;;;;;;;;3.10;99.90;;;;;;5041507;28;19957;-79
2022/01/15 03:44:23;;;;;;;;;;;3.10;99.90;;;;;;5047793;28;19936;-75
2022/01/15 03:46:50;;;;;;;;;;;3.10;99.90;;;;;;5055290;28;19929;-80
2022/01/15 03:51:58;;;;;;;;;;;3.10;99.90;;;;;;5119695;27;19958;-81
2022/01/15 03:54:28;;;;;;;;;;;3.10;99.90;;;;;;5113030;28;19924;-80
2022/01/15 03:56:57;;;;;;;;;;;3.00;99.90;;;;;;5103677;28;19948;-81
2022/01/15 04:02:00;;;;;;;;;;;3.00;99.90;;;;;;5261040;22;19931;-79
2022/01/15 04:04:26;;;;;;;;;;;3.00;99.90;;;;;;5124227;27;19908;-73
2022/01/15 04:06:53;;;;;;;;;;;3.10;99.90;;;;;;5114341;28;19920;-74
2022/01/15 04:09:21;;;;;;;;;;;3.10;99.90;;;;;;5102472;28;19955;-79
2022/01/15 04:11:48;;;;;;;;;;;3.20;99.90;;;;;;5114844;28;19924;-80
2022/01/15 04:14:14;;;;;;;;;;;3.20;99.90;;;;;;5110316;28;19968;-78
2022/01/15 04:16:41;;;;;;;;;;;3.10;99.90;;;;;;5102251;28;20011;-78
2022/01/15 04:19:08;;;;;;;;;;;3.10;99.90;;;;;;5105583;28;19932;-80
2022/01/15 04:21:35;;;;;;;;;;;3.10;99.90;;;;;;5109604;28;20491;-80
2022/01/15 04:24:03;;;;;;;;;;;3.10;99.90;;;;;;5102729;28;19924;-79
2022/01/15 04:26:31;;;;;;;;;;;3.10;99.90;;;;;;5098605;28;20014;-79
2022/01/15 04:29:02;;;;;;;;;;;3.20;99.90;;;;;;5102926;28;19975;-79
2022/01/15 04:31:35;;;;;;;;;;;3.10;99.90;;;;;;5098145;28;19924;-78
2022/01/15 04:34:02;;;;;;;;;;;3.00;99.90;;;;;;5096588;28;19924;-79
2022/01/15 04:36:28;;;;;;;;;;;3.00;99.90;;;;;;5113950;28;19936;-72
2022/01/15 04:38:55;;;;;;;;;;;3.00;99.90;;;;;;5115712;28;19925;-77
2022/01/15 04:41:22;;;;;;;;;;;3.00;99.90;;;;;;5115477;28;19917;-80
2022/01/15 04:43:50;;;;;;;;;;;3.00;99.90;;;;;;5111238;28;19909;-80
2022/01/15 04:46:16;;;;;;;;;;;2.90;99.90;;;;;;5107336;28;19960;-80
2022/01/15 04:48:43;;;;;;;;;;;2.80;99.90;;;;;;5094873;28;19921;-78
2022/01/15 04:51:09;;;;;;;;;;;2.80;99.90;;;;;;5113778;28;19928;-76
2022/01/15 04:53:36;;;;;;;;;;;2.80;99.90;;;;;;5108611;28;19952;-76
2022/01/15 04:56:03;;;;;;;;;;;2.90;99.90;;;;;;5115760;28;19924;-75
2022/01/15 04:58:30;;;;;;;;;;;3.00;99.90;;;;;;5115643;28;19909;-77
2022/01/15 05:00:58;;;;;;;;;;;3.00;99.90;;;;;;5115221;28;19947;-74
2022/01/15 05:03:24;;;;;;;;;;;3.10;99.90;;;;;;5091610;28;19940;-79
2022/01/15 05:05:51;;;;;;;;;;;3.10;99.90;;;;;;5083026;28;19948;-75
2022/01/15 05:08:17;;;;;;;;;;;3.10;99.90;;;;;;5100921;28;19924;-74
2022/01/15 05:10:47;;;;;;;;;;;3.10;99.90;;;;;;5101703;28;19933;-75
2022/01/15 05:13:15;;;;;;;;;;;3.10;99.90;;;;;;5101475;28;19913;-79
2022/01/15 05:15:43;;;;;;;;;;;3.20;99.90;;;;;;5097744;28;19909;-78
2022/01/15 05:18:11;;;;;;;;;;;3.10;99.90;;;;;;5082739;28;19931;-79
2022/01/15 05:20:43;;;;;;;;;;;3.10;99.90;;;;;;5099132;28;19924;-73
2022/01/15 05:23:09;;;;;;;;;;;3.10;99.90;;;;;;5101915;28;19925;-76
2022/01/15 05:25:36;;;;;;;;;;;3.00;99.90;;;;;;5101327;28;19908;-75
2022/01/15 05:28:03;;;;;;;;;;;2.80;99.90;;;;;;5086115;28;19933;-73
2022/01/15 05:30:31;;;;;;;;;;;2.70;99.90;;;;;;5101125;28;20003;-72
2022/01/15 05:32:59;;;;;;;;;;;2.60;99.90;;;;;;5101686;28;19930;-68
2022/01/15 05:35:27;;;;;;;;;;;2.70;99.90;;;;;;5089123;28;19908;-72
2022/01/15 05:37:54;;;;;;;;;;;2.60;99.90;;;;;;5100969;28;19908;-81
2022/01/15 05:40:21;;;;;;;;;;;2.60;99.90;;;;;;5101130;28;19932;-75
2022/01/15 05:42:47;;;;;;;;;;;2.60;99.90;;;;;;5100197;28;19936;-81
2022/01/15 05:45:14;;;;;;;;;;;2.60;99.90;;;;;;5099052;28;19955;-81
2022/01/15 05:47:41;;;;;;;;;;;2.60;99.90;;;;;;5094015;28;19952;-80
2022/01/15 05:50:08;;;;;;;;;;;2.60;99.90;;;;;;5093903;28;19943;-75
2022/01/15 05:52:36;;;;;;;;;;;2.50;99.90;;;;;;5100598;28;19931;-79
2022/01/15 05:55:03;;;;;;;;;;;2.50;99.90;;;;;;5098804;28;19947;-80
2022/01/15 05:57:30;;;;;;;;;;;2.60;99.90;;;;;;5101219;28;19915;-75
2022/01/15 05:59:56;;;;;;;;;;;2.60;99.90;;;;;;5101167;28;19908;-70
2022/01/15 06:02:23;;;;;;;;;;;2.70;99.90;;;;;;5100725;28;19967;-75
2022/01/15 06:04:51;;;;;;;;;;;2.60;99.90;;;;;;5100103;28;19959;-73
2022/01/15 06:07:18;;;;;;;;;;;2.60;99.90;;;;;;5099416;28;19932;-80
2022/01/15 06:09:46;;;;;;;;;;;2.60;99.90;;;;;;5099980;28;19908;-80
2022/01/15 06:12:12;;;;;;;;;;;2.60;99.90;;;;;;5099947;28;19908;-80
2022/01/15 06:14:39;;;;;;;;;;;2.70;99.90;;;;;;5098438;28;19919;-78
2022/01/15 06:17:08;;;;;;;;;;;2.60;99.90;;;;;;5098592;28;19960;-80
2022/01/15 06:19:35;;;;;;;;;;;2.60;99.90;;;;;;5092149;28;19932;-80
2022/01/15 06:22:01;;;;;;;;;;;2.70;99.90;;;;;;5080815;28;20011;-75
2022/01/15 06:24:28;;;;;;;;;;;2.50;99.90;;;;;;5068082;28;19931;-76
2022/01/15 06:26:56;;;;;;;;;;;2.60;99.90;;;;;;5072693;28;20401;-75
2022/01/15 06:29:23;;;;;;;;;;;2.60;99.90;;;;;;5067020;28;19968;-75
2022/01/15 06:31:49;;;;;;;;;;;2.60;99.90;;;;;;5073084;28;19939;-78
2022/01/15 06:34:16;;;;;;;;;;;2.60;99.90;;;;;;5093564;28;19920;-80
2022/01/15 06:36:43;;;;;;;;;;;2.70;99.90;;;;;;5099624;28;19908;-81
2022/01/15 06:39:09;;;;;;;;;;;2.60;99.90;;;;;;5098933;28;19909;-75
2022/01/15 06:41:36;;;;;;;;;;;2.70;99.90;;;;;;5097768;28;20334;-78
2022/01/15 06:44:04;;;;;;;;;;;2.70;99.90;;;;;;5079976;28;19929;-74
2022/01/15 06:46:31;;;;;;;;;;;2.80;99.90;;;;;;5083535;28;19908;-76
2022/01/15 06:48:57;;;;;;;;;;;2.80;99.90;;;;;;5099945;28;19912;-72
2022/01/15 06:51:25;;;;;;;;;;;2.80;99.90;;;;;;5099996;28;19912;-74
2022/01/15 06:53:52;;;;;;;;;;;2.80;99.90;;;;;;5099835;28;19920;-72
2022/01/15 06:56:18;;;;;;;;;;;2.60;99.90;;;;;;5099817;28;19943;-79
2022/01/15 06:58:46;;;;;;;;;;;2.70;99.90;;;;;;5099774;28;19943;-71
2022/01/15 07:01:14;;;;;;;;;;;2.60;99.90;;;;;;5099431;28;19913;-79
2022/01/15 07:03:40;;;;;;;;;;;2.70;99.90;;;;;;5099600;28;19932;-78
2022/01/15 07:06:07;;;;;;;;;;;2.70;99.90;;;;;;5079818;28;19956;-80
2022/01/15 07:08:34;;;;;;;;;;;2.60;99.90;;;;;;5079163;28;19909;-81
2022/01/15 07:11:00;;;;;;;;;;;2.60;99.90;;;;;;5097452;28;19915;-81
2022/01/15 07:13:29;;;;;;;;;;;2.60;99.90;;;;;;5080580;28;19916;-74
2022/01/15 07:15:56;;;;;;;;;;;2.60;99.90;;;;;;5097336;28;19947;-79
2022/01/15 07:18:24;;;;;;;;;;;2.70;99.90;;;;;;5091625;28;19988;-81
2022/01/15 07:20:52;;;;;;;;;;;2.60;99.90;;;;;;5096076;28;19932;-77
2022/01/15 07:23:18;;;;;;;;;;;2.60;99.90;;;;;;5097038;28;19908;-75
2022/01/15 07:25:45;;;;;;;;;;;2.60;99.90;;;;;;5099003;28;19940;-72
2022/01/15 07:28:12;;;;;;;;;;;2.60;99.90;;;;;;5098765;28;19948;-76
2022/01/15 07:30:40;;;;;;;;;;;2.60;99.90;;;;;;5095920;28;19947;-81
2022/01/15 07:33:07;;;;;;;;;;;2.40;99.90;;;;;;5092331;28;19991;-79
2022/01/15 07:35:35;;;;;;;;;;;2.40;99.90;;;;;;5084547;28;19943;-80
2022/01/15 07:38:01;;;;;;;;;;;2.40;99.90;;;;;;5095919;28;19984;-79
2022/01/15 07:40:28;;;;;;;;;;;2.40;99.90;;;;;;5093350;28;19943;-80
2022/01/15 07:42:55;;;;;;;;;;;2.40;99.90;;;;;;5090377;28;19935;-79
2022/01/15 07:45:21;;;;;;;;;;;2.40;99.90;;;;;;5093739;28;19924;-80
2022/01/15 07:47:48;;;;;;;;;;;2.40;99.90;;;;;;5087534;28;19948;-80
2022/01/15 07:50:17;;;;;;;;;;;2.30;99.90;;;;;;5080671;28;19992;-80
2022/01/15 07:52:45;;;;;;;;;;;2.30;99.90;;;;;;5084410;28;19932;-81
2022/01/15 07:55:12;;;;;;;;;;;2.40;99.90;;;;;;5095451;28;19939;-80
2022/01/15 07:57:40;;;;;;;;;;;2.40;99.90;;;;;;5096420;28;19925;-80
2022/01/15 08:00:08;;;;;;;;;;;2.40;99.90;;;;;;5092910;28;19909;-81
2022/01/15 08:02:34;;;;;;;;;;;2.50;99.90;;;;;;5082226;28;20015;-75
2022/01/15 08:05:01;;;;;;;;;;;2.50;99.90;;;;;;5066827;28;19931;-74
2022/01/15 08:07:27;;;;;;;;;;;2.40;99.90;;;;;;5057024;28;19931;-74
2022/01/15 08:09:55;;;;;;;;;;;2.40;99.90;;;;;;5067662;28;19925;-74
2022/01/15 08:12:22;;;;;;;;;;;2.30;99.90;;;;;;5072647;28;19928;-75
2022/01/15 08:14:55;;;;;;;;;;;2.30;99.90;;;;;;5068349;28;20550;-77
2022/01/15 08:17:24;;;;;;;;;;;2.30;99.90;;;;;;5065092;28;19932;-75
2022/01/15 08:19:50;;;;;;;;;;;2.40;99.90;;;;;;5067129;28;19932;-76
2022/01/15 08:22:17;;;;;;;;;;;2.50;99.90;;;;;;5074567;28;19925;-78
2022/01/15 08:24:44;;;;;;;;;;;2.50;99.90;;;;;;5068688;28;19930;-77
2022/01/15 08:27:12;;;;;;;;;;;2.50;99.90;;;;;;5070716;28;20023;-78
2022/01/15 08:29:40;;;;;;;;;;;2.60;99.90;;;;;;5070765;28;19980;-79
2022/01/15 08:32:07;;;;;;;;;;;2.60;99.90;;;;;;5070444;28;19934;-77
2022/01/15 08:34:33;;;;;;;;;;;2.50;99.90;;;;;;5068707;28;20486;-77
2022/01/15 08:37:00;;;;;;;;;;;2.60;99.90;;;;;;5076359;28;19960;-77
2022/01/15 08:39:27;;;;;;;;;;;2.50;99.90;;;;;;5070919;28;20371;-77
2022/01/15 08:41:53;;;;;;;;;;;2.50;99.90;;;;;;5076924;28;19929;-77
2022/01/15 08:44:24;;;;;;;;;;;2.60;99.90;;;;;;5072604;28;19931;-77
2022/01/15 08:46:51;;;;;;;;;;;2.70;99.90;;;;;;5074604;28;19947;-76
2022/01/15 08:49:18;;;;;;;;;;;2.70;99.90;;;;;;5075088;28;19925;-76
2022/01/15 08:51:45;;;;;;;;;;;2.60;99.90;;;;;;5073474;28;19924;-78
2022/01/15 08:54:12;;;;;;;;;;;2.60;99.90;;;;;;5075859;28;19952;-77
2022/01/15 08:56:39;;;;;;;;;;;2.50;99.90;;;;;;5069421;28;19925;-76
2022/01/15 08:59:05;;;;;;;;;;;2.40;99.90;;;;;;5065588;28;20011;-76
2022/01/15 09:01:33;;;;;;;;;;;2.30;99.90;;;;;;5064252;28;19933;-76
2022/01/15 09:04:00;;;;;;;;;;;2.40;99.90;;;;;;5065440;28;19931;-78
2022/01/15 09:06:27;;;;;;;;;;;2.40;99.90;;;;;;5067030;28;19924;-76
2022/01/15 09:08:54;;;;;;;;;;;2.40;99.90;;;;;;5067722;28;19924;-78
2022/01/15 09:11:21;;;;;;;;;;;2.40;99.90;;;;;;5066196;28;19925;-77
2022/01/15 09:13:48;;;;;;;;;;;2.40;99.90;;;;;;5065999;28;19936;-78
2022/01/15 09:16:15;;;;;;;;;;;2.50;99.90;;;;;;5064936;28;20283;-78
2022/01/15 09:18:43;;;;;;;;;;;2.60;99.90;;;;;;5058593;28;19924;-78
2022/01/15 09:21:10;;;;;;;;;;;2.80;99.90;;;;;;5062471;28;20268;-77
2022/01/15 09:23:36;;;;;;;;;;;2.80;99.90;;;;;;5063445;28;20295;-78
2022/01/15 09:26:03;;;;;;;;;;;2.70;99.90;;;;;;5060788;28;19924;-77
2022/01/15 09:31:14;;;;;;;;;;;2.70;99.90;;;;;;5068149;28;19997;-77
2022/01/15 09:33:41;;;;;;;;;;;2.80;99.90;;;;;;5069334;28;19955;-78
2022/01/15 09:36:09;;;;;;;;;;;2.80;99.90;;;;;;5062447;28;19932;-77
2022/01/15 09:38:36;;;;;;;;;;;2.80;99.90;;;;;;5060339;28;20055;-78
2022/01/15 09:41:02;;;;;;;;;;;2.80;99.90;;;;;;5068364;28;19931;-77
2022/01/15 09:43:29;;;;;;;;;;;2.80;99.90;;;;;;5067662;28;19967;-77
2022/01/15 09:45:58;;;;;;;;;;;2.80;99.90;;;;;;5063632;28;19931;-77
2022/01/15 09:48:26;;;;;;;;;;;2.80;99.90;;;;;;5059184;28;19925;-76
2022/01/15 09:50:53;;;;;;;;;;;2.90;99.90;;;;;;5065294;28;19974;-76
2022/01/15 09:53:21;;;;;;;;;;;2.70;99.90;;;;;;5059267;28;19931;-76
2022/01/15 09:55:48;;;;;;;;;;;2.90;99.90;;;;;;5069979;28;19939;-76
2022/01/15 09:58:15;;;;;;;;;;;3.00;99.90;;;;;;5060927;28;20019;-78
2022/01/15 10:00:41;;;;;;;;;;;3.10;99.90;;;;;;5066605;28;19968;-77
2022/01/15 10:03:08;;;;;;;;;;;3.00;99.90;;;;;;5063279;28;19940;-78
2022/01/15 10:05:35;;;;;;;;;;;2.80;99.90;;;;;;5065110;28;20023;-76
2022/01/15 10:08:03;;;;;;;;;;;2.70;99.90;;;;;;5071552;28;19978;-79
2022/01/15 10:10:33;;;;;;;;;;;2.80;99.90;;;;;;5072178;28;19931;-76
2022/01/15 10:13:11;;;;;;;;;;;2.70;99.90;;;;;;5067788;28;20388;-76
2022/01/15 10:15:38;;;;;;;;;;;2.90;99.90;;;;;;5060153;28;19924;-75
2022/01/15 10:18:18;;;;;;;;;;;3.00;99.90;;;;;;5071137;28;19930;-76
2022/01/15 10:20:44;;;;;;;;;;;3.10;99.90;;;;;;5069308;28;19935;-76
2022/01/15 10:23:15;;;;;;;;;;;3.10;99.90;;;;;;5067347;28;19931;-77
2022/01/15 10:25:43;;;;;;;;;;;3.00;99.90;;;;;;5067119;28;19968;-77
2022/01/15 10:28:10;;;;;;;;;;;3.10;99.90;;;;;;5063128;28;20382;-77
2022/01/15 10:30:37;;;;;;;;;;;3.10;99.90;;;;;;5066818;28;19924;-77
2022/01/15 10:33:05;;;;;;;;;;;3.10;99.90;;;;;;5066889;28;19928;-78
2022/01/15 10:35:33;;;;;;;;;;;3.20;99.90;;;;;;5062809;28;20382;-78
2022/01/15 10:38:00;;;;;;;;;;;3.30;99.90;;;;;;5063046;28;19924;-78
2022/01/15 10:40:28;;;;;;;;;;;3.40;99.90;;;;;;5069680;28;19932;-77
2022/01/15 10:42:57;;;;;;;;;;;3.50;99.90;;;;;;5066281;28;19943;-78
2022/01/15 10:45:24;;;;;;;;;;;3.40;99.90;;;;;;5070294;28;19975;-78
2022/01/15 10:47:54;;;;;;;;;;;3.50;99.90;;;;;;5069909;28;19925;-78
2022/01/15 10:50:21;;;;;;;;;;;3.90;99.90;;;;;;5067174;28;19931;-77
2022/01/15 10:52:48;;;;;;;;;;;4.20;99.90;;;;;;5060745;28;19925;-76
2022/01/15 10:55:18;;;;;;;;;;;4.20;99.90;;;;;;5067585;28;20023;-76
2022/01/15 10:57:45;;;;;;;;;;;4.10;99.90;;;;;;5063975;28;19929;-78
2022/01/15 11:00:17;;;;;;;;;;;4.10;99.90;;;;;;5063435;28;19954;-78
2022/01/15 11:02:45;;;;;;;;;;;4.10;99.90;;;;;;5060308;28;19951;-78
2022/01/15 11:05:35;;;;;;;;;;;4.00;99.90;;;;;;5059492;28;20046;-78
2022/01/15 11:08:07;;;;;;;;;;;4.00;99.90;;;;;;5052111;28;20295;-77
2022/01/15 11:10:37;;;;;;;;;;;4.00;99.90;;;;;;5061252;28;19943;-78
2022/01/15 11:13:06;;;;;;;;;;;4.00;99.90;;;;;;5066146;28;19929;-78
2022/01/15 11:15:35;;;;;;;;;;;4.10;99.90;;;;;;5067839;28;20402;-77
2022/01/15 11:18:02;;;;;;;;;;;4.10;99.90;;;;;;5064628;28;19925;-78
2022/01/15 11:20:31;;;;;;;;;;;4.20;99.90;;;;;;5062988;28;20450;-79
2022/01/15 11:22:58;;;;;;;;;;;4.30;99.90;;;;;;5063547;28;19932;-78
2022/01/15 11:25:27;;;;;;;;;;;4.30;99.90;;;;;;5056183;28;19931;-77
2022/01/15 11:27:54;;;;;;;;;;;4.30;99.90;;;;;;5061915;28;19925;-77
2022/01/15 11:30:21;;;;;;;;;;;4.40;99.90;;;;;;5061825;28;19960;-77
2022/01/15 11:32:49;;;;;;;;;;;4.30;99.90;;;;;;5057301;28;19925;-77
2022/01/15 11:35:16;;;;;;;;;;;4.30;99.90;;;;;;5058065;28;19924;-78
2022/01/15 11:37:46;;;;;;;;;;;4.30;99.90;;;;;;5060831;28;19948;-76
2022/01/15 11:40:31;;;;;;;;;;;4.30;99.90;;;;;;5055221;28;19933;-76
2022/01/15 11:42:59;;;;;;;;;;;4.30;99.90;;;;;;5056916;28;19931;-77
2022/01/15 11:45:39;;;;;;;;;;;4.40;99.90;;;;;;5058748;28;19925;-78
2022/01/15 11:48:21;;;;;;;;;;;4.40;99.90;;;;;;5060401;28;19952;-77
2022/01/15 11:51:13;;;;;;;;;;;4.50;99.90;;;;;;5065682;28;19932;-78
2022/01/15 11:53:46;;;;;;;;;;;4.50;99.90;;;;;;5058537;28;20047;-77
2022/01/15 11:56:16;;;;;;;;;;;4.60;99.90;;;;;;5061259;28;20407;-77
2022/01/15 11:58:43;;;;;;;;;;;4.60;99.90;;;;;;5060782;28;19933;-81
2022/01/15 12:01:36;;;;;;;;;;;4.70;99.90;;;;;;5067150;28;19972;-78
2022/01/15 12:04:18;;;;;;;;;;;4.60;99.90;;;;;;5071165;28;19931;-75
2022/01/15 12:07:04;;;;;;;;;;;4.40;99.90;;;;;;5065718;28;19932;-76
2022/01/15 12:09:32;;;;;;;;;;;4.30;99.90;;;;;;5062697;28;20011;-76
2022/01/15 12:12:00;;;;;;;;;;;4.30;99.90;;;;;;5065767;28;19932;-76
2022/01/15 12:14:41;;;;;;;;;;;4.20;99.90;;;;;;5064357;28;19928;-75
2022/01/15 12:17:23;;;;;;;;;;;4.30;99.90;;;;;;5066609;28;19933;-75
2022/01/15 12:19:50;;;;;;;;;;;4.20;99.90;;;;;;5065685;28;20012;-76
2022/01/15 12:22:31;;;;;;;;;;;4.20;99.90;;;;;;5067547;28;19925;-76
2022/01/15 12:24:59;;;;;;;;;;;4.40;99.90;;;;;;5064964;28;20298;-76
2022/01/15 12:27:30;;;;;;;;;;;4.50;99.90;;;;;;5064500;28;20429;-76
2022/01/15 12:30:00;;;;;;;;;;;4.60;99.90;;;;;;5064906;28;20395;-75
2022/01/15 12:32:28;;;;;;;;;;;4.70;99.90;;;;;;5065253;28;19929;-75
2022/01/15 12:34:56;;;;;;;;;;;4.90;99.90;;;;;;5062295;28;19935;-76
2022/01/15 12:37:23;;;;;;;;;;;5.10;99.90;;;;;;5065653;28;19932;-75
2022/01/15 12:39:50;;;;;;;;;;;5.20;99.90;;;;;;5061206;28;19932;-76
2022/01/15 12:42:18;;;;;;;;;;;5.20;99.90;;;;;;5060798;28;19925;-75
2022/01/15 12:44:46;;;;;;;;;;;5.20;99.90;;;;;;5062766;28;19924;-76
2022/01/15 12:47:13;;;;;;;;;;;5.20;99.90;;;;;;5063702;28;20303;-75
2022/01/15 12:49:41;;;;;;;;;;;5.30;99.90;;;;;;5062750;28;19930;-75
2022/01/15 12:52:08;;;;;;;;;;;5.40;99.90;;;;;;5067079;28;19925;-76
2022/01/15 12:54:35;;;;;;;;;;;5.40;99.90;;;;;;5067023;28;20362;-75
2022/01/15 12:57:02;;;;;;;;;;;5.50;99.90;;;;;;5069123;28;20359;-77
2022/01/15 12:59:30;;;;;;;;;;;5.50;99.90;;;;;;5071524;28;20009;-76
2022/01/15 13:01:56;;;;;;;;;;;5.50;99.90;;;;;;5061354;28;20693;-78
2022/01/15 13:04:23;;;;;;;;;;;5.60;99.90;;;;;;5063250;28;19925;-76
2022/01/15 13:06:57;;;;;;;;;;;5.70;99.90;;;;;;5061927;28;19931;-78
2022/01/15 13:09:38;;;;;;;;;;;5.70;99.90;;;;;;5061082;28;19924;-76
2022/01/15 13:12:07;;;;;;;;;;;5.70;99.90;;;;;;5064932;28;19974;-76
2022/01/15 13:14:38;;;;;;;;;;;5.80;99.90;;;;;;5066758;28;20031;-75
2022/01/15 13:17:05;;;;;;;;;;;5.80;99.90;;;;;;5062930;28;19932;-76
2022/01/15 13:19:38;;;;;;;;;;;5.90;99.90;;;;;;5068345;28;20391;-76
2022/01/15 13:22:05;;;;;;;;;;;5.90;99.90;;;;;;5067880;28;19924;-76
2022/01/15 13:24:34;;;;;;;;;;;5.90;99.90;;;;;;5064314;28;20011;-76
2022/01/15 13:27:01;;;;;;;;;;;5.60;99.90;;;;;;5069411;28;19968;-76
2022/01/15 13:29:39;;;;;;;;;;;5.60;99.90;;;;;;5068116;28;19978;-76
2022/01/15 13:32:07;;;;;;;;;;;5.70;99.90;;;;;;5065603;28;20398;-75
2022/01/15 13:34:36;;;;;;;;;;;5.70;99.90;;;;;;5065996;28;19925;-75
2022/01/15 13:37:09;;;;;;;;;;;5.70;99.90;;;;;;5064607;28;19930;-76
2022/01/15 13:39:36;;;;;;;;;;;5.70;99.90;;;;;;5064854;28;19933;-76
2022/01/15 13:42:03;;;;;;;;;;;5.70;99.90;;;;;;5065646;28;20003;-76
2022/01/15 13:44:31;;;;;;;;;;;5.70;99.90;;;;;;5068472;28;19930;-76
2022/01/15 13:47:06;;;;;;;;;;;5.80;99.90;;;;;;5058891;28;20272;-73
2022/01/15 13:53:04;;;;;;;;;;;5.90;99.90;;;;;;5053284;28;19959;-74
2022/01/15 13:55:14;;;;;;;;;;;6.10;99.70;;;;;;5058176;28;19932;-73
2022/01/15 13:57:41;;;;;;;;;;;6.10;98.90;;;;;;5055075;28;19925;-73
2022/01/15 14:00:10;;;;;;;;;;;6.10;99.10;;;;;;5056718;28;19925;-73
2022/01/15 14:02:38;;;;;;;;;;;6.20;99.10;;;;;;5057415;28;19963;-77
2022/01/15 14:05:12;;;;;;;;;;;6.30;98.80;;;;;;5068172;28;19933;-73
2022/01/15 14:07:39;;;;;;;;;;;6.30;98.50;;;;;;5060466;28;20011;-73
2022/01/15 14:10:08;;;;;;;;;;;6.40;98.60;;;;;;5058812;28;19938;-73
2022/01/15 14:12:35;;;;;;;;;;;6.40;98.20;;;;;;5064388;28;19925;-73
2022/01/15 14:15:04;;;;;;;;;;;6.40;98.20;;;;;;5058450;28;19924;-73
2022/01/15 14:17:31;;;;;;;;;;;6.40;98.00;;;;;;5063882;28;19931;-73
2022/01/15 14:20:15;;;;;;;;;;;6.30;97.80;;;;;;5065795;28;19971;-73
2022/01/15 14:22:43;;;;;;;;;;;6.20;97.90;;;;;;5063765;28;20319;-73
2022/01/15 14:25:11;;;;;;;;;;;6.10;98.10;;;;;;5058568;28;19925;-71
2022/01/15 14:27:38;;;;;;;;;;;6.20;98.30;;;;;;5060808;28;19928;-71
2022/01/15 14:30:06;;;;;;;;;;;6.10;98.10;;;;;;5056027;28;20023;-71
2022/01/15 14:32:33;;;;;;;;;;;6.10;98.20;;;;;;5061088;28;19928;-70
2022/01/15 14:35:01;;;;;;;;;;;6.00;98.30;;;;;;5052452;28;19929;-71
2022/01/15 14:37:28;;;;;;;;;;;6.00;98.70;;;;;;5058899;28;19925;-71
2022/01/15 14:39:55;;;;;;;;;;;5.90;98.80;;;;;;5057270;28;19924;-70
2022/01/15 14:42:23;;;;;;;;;;;5.90;98.80;;;;;;5055318;28;19924;-70
2022/01/15 14:44:49;;;;;;;;;;;5.80;98.90;;;;;;5062523;28;21925;-71
2022/01/15 14:47:16;;;;;;;;;;;5.80;99.10;;;;;;5052435;28;20396;-70
2022/01/15 14:49:43;;;;;;;;;;;5.70;99.10;;;;;;5059973;28;19935;-71
2022/01/15 14:52:11;;;;;;;;;;;5.70;99.20;;;;;;5051676;28;20020;-70
2022/01/15 14:54:38;;;;;;;;;;;5.70;99.30;;;;;;5056507;28;19938;-70
2022/01/15 14:57:04;;;;;;;;;;;5.70;99.30;;;;;;5056788;28;20513;-70
2022/01/15 14:59:31;;;;;;;;;;;5.70;99.30;;;;;;5055595;28;19931;-70
2022/01/15 15:01:58;;;;;;;;;;;5.60;99.20;;;;;;5062266;28;20023;-70
2022/01/15 15:04:25;;;;;;;;;;;5.60;99.10;;;;;;5054186;28;19925;-70
2022/01/15 15:06:52;;;;;;;;;;;5.60;99.20;;;;;;5063973;28;19982;-70
2022/01/15 15:09:20;;;;;;;;;;;5.60;99.10;;;;;;5059129;28;19936;-70